sensor_id;sensor_type;location;lat;lon;timestamp;P1;durP1;ratioP1;P2;durP2;ratioP2
20888;SDS011;10604;51.976;7.594;2023-05-28T17:24:01;8.75;;;4.15;;
20888;SDS011;10604;51.976;7.594;2023-05-28T17:26:26;12.03;;;4.50;;
20888;SDS011;10604;51.976;7.594;2023-05-28T17:28:52;8.05;;;4.20;;
20888;SDS011;10604;51.976;7.594;2023-05-28T17:31:18;8.32;;;4.68;;
20888;SDS011;10604;51.976;7.594;2023-05-28T17:33:43;8.20;;;4.70;;
20888;SDS011;10604;51.976;7.594;2023-05-28T17:36:09;9.73;;;5.00;;
20888;SDS011;10604;51.976;7.594;2023-05-28T17:38:34;9.18;;;4.50;;
20888;SDS011;10604;51.976;7.594;2023-05-28T17:41:00;8.63;;;4.67;;
20888;SDS011;10604;51.976;7.594;2023-05-28T17:43:25;7.83;;;4.90;;
20888;SDS011;10604;51.976;7.594;2023-05-28T17:45:52;10.50;;;5.07;;
20888;SDS011;10604;51.976;7.594;2023-05-28T17:48:21;10.63;;;4.95;;
20888;SDS011;10604;51.976;7.594;2023-05-28T17:50:47;10.60;;;4.90;;
20888;SDS011;10604;51.976;7.594;2023-05-28T17:53:15;8.52;;;4.75;;
20888;SDS011;10604;51.976;7.594;2023-05-28T17:55:41;10.35;;;4.57;;
20888;SDS011;10604;51.976;7.594;2023-05-28T17:58:06;8.35;;;4.90;;
20888;SDS011;10604;51.976;7.594;2023-05-28T18:00:32;10.17;;;5.00;;
20888;SDS011;10604;51.976;7.594;2023-05-28T18:02:57;9.83;;;5.20;;
20888;SDS011;10604;51.976;7.594;2023-05-28T18:05:25;8.35;;;4.80;;
20888;SDS011;10604;51.976;7.594;2023-05-28T18:07:52;9.10;;;5.17;;
20888;SDS011;10604;51.976;7.594;2023-05-28T18:10:18;8.63;;;4.80;;
20888;SDS011;10604;51.976;7.594;2023-05-28T18:12:44;8.05;;;4.70;;
20888;SDS011;10604;51.976;7.594;2023-05-28T18:15:09;8.50;;;5.10;;
20888;SDS011;10604;51.976;7.594;2023-05-28T18:17:36;9.23;;;4.57;;
20888;SDS011;10604;51.976;7.594;2023-05-28T18:20:05;11.02;;;4.72;;
20888;SDS011;10604;51.976;7.594;2023-05-28T18:22:31;6.13;;;4.80;;
20888;SDS011;10604;51.976;7.594;2023-05-28T18:24:57;6.43;;;4.37;;
20888;SDS011;10604;51.976;7.594;2023-05-28T18:27:22;6.30;;;4.40;;
20888;SDS011;10604;51.976;7.594;2023-05-28T18:29:47;6.53;;;3.97;;
20888;SDS011;10604;51.976;7.594;2023-05-28T18:32:13;7.17;;;4.17;;
20888;SDS011;10604;51.976;7.594;2023-05-28T18:34:38;8.17;;;4.27;;
20888;SDS011;10604;51.976;7.594;2023-05-28T18:37:04;8.27;;;4.53;;
20888;SDS011;10604;51.976;7.594;2023-05-28T18:39:29;7.23;;;4.27;;
20888;SDS011;10604;51.976;7.594;2023-05-28T18:41:54;6.20;;;4.40;;
20888;SDS011;10604;51.976;7.594;2023-05-28T18:44:20;4.95;;;4.10;;
20888;SDS011;10604;51.976;7.594;2023-05-28T18:46:45;5.80;;;4.13;;
20888;SDS011;10604;51.976;7.594;2023-05-28T18:49:11;6.57;;;4.33;;
20888;SDS011;10604;51.976;7.594;2023-05-28T18:51:36;6.47;;;4.03;;
20888;SDS011;10604;51.976;7.594;2023-05-28T18:54:02;5.80;;;4.10;;
20888;SDS011;10604;51.976;7.594;2023-05-28T18:56:27;6.67;;;4.27;;
20888;SDS011;10604;51.976;7.594;2023-05-28T18:58:53;5.38;;;3.75;;
20888;SDS011;10604;51.976;7.594;2023-05-28T19:01:19;7.57;;;3.80;;
20888;SDS011;10604;51.976;7.594;2023-05-28T19:03:45;5.88;;;3.70;;
20888;SDS011;10604;51.976;7.594;2023-05-28T19:06:12;7.25;;;3.78;;
20888;SDS011;10604;51.976;7.594;2023-05-28T19:08:38;6.10;;;3.53;;
20888;SDS011;10604;51.976;7.594;2023-05-28T19:11:03;7.50;;;3.57;;
20888;SDS011;10604;51.976;7.594;2023-05-28T19:13:31;5.65;;;3.15;;
20888;SDS011;10604;51.976;7.594;2023-05-28T19:15:57;7.10;;;3.50;;
20888;SDS011;10604;51.976;7.594;2023-05-28T19:18:24;6.73;;;3.40;;
20888;SDS011;10604;51.976;7.594;2023-05-28T19:20:50;7.60;;;3.50;;
20888;SDS011;10604;51.976;7.594;2023-05-28T19:23:15;6.13;;;3.70;;
20888;SDS011;10604;51.976;7.594;2023-05-28T19:25:40;7.83;;;3.70;;
20888;SDS011;10604;51.976;7.594;2023-05-28T19:28:06;8.97;;;3.77;;
20888;SDS011;10604;51.976;7.594;2023-05-28T19:30:31;7.35;;;3.50;;
20888;SDS011;10604;51.976;7.594;2023-05-28T19:32:57;6.10;;;3.37;;
20888;SDS011;10604;51.976;7.594;2023-05-28T19:35:22;5.70;;;3.33;;
20888;SDS011;10604;51.976;7.594;2023-05-28T19:37:47;7.83;;;3.30;;
20888;SDS011;10604;51.976;7.594;2023-05-28T19:40:15;5.32;;;2.92;;
20888;SDS011;10604;51.976;7.594;2023-05-28T19:42:40;6.67;;;3.13;;
20888;SDS011;10604;51.976;7.594;2023-05-28T19:45:06;5.30;;;2.90;;
20888;SDS011;10604;51.976;7.594;2023-05-28T19:47:32;7.93;;;3.00;;
20888;SDS011;10604;51.976;7.594;2023-05-28T19:49:57;6.68;;;3.20;;
20888;SDS011;10604;51.976;7.594;2023-05-28T19:52:25;6.10;;;3.08;;
20888;SDS011;10604;51.976;7.594;2023-05-28T19:54:51;7.22;;;3.40;;
20888;SDS011;10604;51.976;7.594;2023-05-28T19:57:16;4.13;;;2.50;;
20888;SDS011;10604;51.976;7.594;2023-05-28T19:59:41;5.43;;;2.80;;
20888;SDS011;10604;51.976;7.594;2023-05-28T20:02:07;5.07;;;2.35;;
20888;SDS011;10604;51.976;7.594;2023-05-28T20:04:33;5.60;;;2.70;;
20888;SDS011;10604;51.976;7.594;2023-05-28T20:06:58;6.10;;;2.58;;
20888;SDS011;10604;51.976;7.594;2023-05-28T20:09:24;3.73;;;2.80;;
20888;SDS011;10604;51.976;7.594;2023-05-28T20:11:49;3.70;;;2.73;;
20888;SDS011;10604;51.976;7.594;2023-05-28T20:14:15;3.90;;;2.60;;
20888;SDS011;10604;51.976;7.594;2023-05-28T20:16:40;3.17;;;2.30;;
20888;SDS011;10604;51.976;7.594;2023-05-28T20:19:19;5.07;;;2.63;;
20888;SDS011;10604;51.976;7.594;2023-05-28T20:21:49;5.40;;;2.60;;
20888;SDS011;10604;51.976;7.594;2023-05-28T20:24:15;3.87;;;2.40;;
20888;SDS011;10604;51.976;7.594;2023-05-28T20:26:41;4.30;;;2.60;;
20888;SDS011;10604;51.976;7.594;2023-05-28T20:29:06;5.37;;;2.97;;
20888;SDS011;10604;51.976;7.594;2023-05-28T20:31:32;3.80;;;2.37;;
20888;SDS011;10604;51.976;7.594;2023-05-28T20:33:57;3.22;;;2.47;;
20888;SDS011;10604;51.976;7.594;2023-05-28T20:36:22;4.60;;;2.70;;
20888;SDS011;10604;51.976;7.594;2023-05-28T20:38:48;3.63;;;2.50;;
20888;SDS011;10604;51.976;7.594;2023-05-28T20:41:14;6.22;;;2.30;;
20888;SDS011;10604;51.976;7.594;2023-05-28T20:43:39;3.70;;;2.50;;
20888;SDS011;10604;51.976;7.594;2023-05-28T20:46:06;4.20;;;2.45;;
20888;SDS011;10604;51.976;7.594;2023-05-28T20:48:33;3.38;;;2.47;;
20888;SDS011;10604;51.976;7.594;2023-05-28T20:50:58;3.37;;;2.40;;
20888;SDS011;10604;51.976;7.594;2023-05-28T20:53:24;2.83;;;2.30;;
20888;SDS011;10604;51.976;7.594;2023-05-28T20:55:50;4.80;;;2.50;;
20888;SDS011;10604;51.976;7.594;2023-05-28T20:58:15;3.30;;;2.53;;
20888;SDS011;10604;51.976;7.594;2023-05-28T21:00:41;4.07;;;2.50;;
20888;SDS011;10604;51.976;7.594;2023-05-28T21:03:07;3.57;;;2.40;;
20888;SDS011;10604;51.976;7.594;2023-05-28T21:05:32;4.23;;;2.47;;
20888;SDS011;10604;51.976;7.594;2023-05-28T21:07:57;3.50;;;2.57;;
20888;SDS011;10604;51.976;7.594;2023-05-28T21:10:23;3.33;;;2.30;;
20888;SDS011;10604;51.976;7.594;2023-05-28T21:12:49;3.23;;;2.50;;
20888;SDS011;10604;51.976;7.594;2023-05-28T21:15:14;5.23;;;2.40;;
20888;SDS011;10604;51.976;7.594;2023-05-28T21:17:40;3.83;;;2.40;;
20888;SDS011;10604;51.976;7.594;2023-05-28T21:20:05;3.23;;;2.53;;
20888;SDS011;10604;51.976;7.594;2023-05-28T21:22:31;3.78;;;2.53;;
20888;SDS011;10604;51.976;7.594;2023-05-28T21:24:57;3.38;;;2.53;;
20888;SDS011;10604;51.976;7.594;2023-05-28T21:27:22;3.40;;;2.40;;
20888;SDS011;10604;51.976;7.594;2023-05-28T21:29:47;3.70;;;2.60;;
20888;SDS011;10604;51.976;7.594;2023-05-28T21:32:13;3.93;;;2.57;;
20888;SDS011;10604;51.976;7.594;2023-05-28T21:34:38;4.63;;;2.50;;
20888;SDS011;10604;51.976;7.594;2023-05-28T21:37:03;3.40;;;2.50;;
20888;SDS011;10604;51.976;7.594;2023-05-28T21:39:29;4.20;;;2.60;;
20888;SDS011;10604;51.976;7.594;2023-05-28T21:41:56;3.45;;;2.70;;
20888;SDS011;10604;51.976;7.594;2023-05-28T21:44:21;3.37;;;2.40;;
20888;SDS011;10604;51.976;7.594;2023-05-28T21:46:47;4.78;;;2.55;;
20888;SDS011;10604;51.976;7.594;2023-05-28T21:49:12;5.07;;;2.50;;
20888;SDS011;10604;51.976;7.594;2023-05-28T21:51:38;4.60;;;2.57;;
20888;SDS011;10604;51.976;7.594;2023-05-28T21:54:03;4.70;;;2.60;;
20888;SDS011;10604;51.976;7.594;2023-05-28T21:56:29;3.83;;;2.60;;
20888;SDS011;10604;51.976;7.594;2023-05-28T21:58:54;3.33;;;2.30;;
20888;SDS011;10604;51.976;7.594;2023-05-28T22:01:20;5.18;;;2.60;;
20888;SDS011;10604;51.976;7.594;2023-05-28T22:03:45;5.00;;;2.50;;
20888;SDS011;10604;51.976;7.594;2023-05-28T22:06:11;6.00;;;2.70;;
20888;SDS011;10604;51.976;7.594;2023-05-28T22:08:36;6.50;;;2.70;;
20888;SDS011;10604;51.976;7.594;2023-05-28T22:11:05;3.53;;;2.65;;
20888;SDS011;10604;51.976;7.594;2023-05-28T22:13:31;3.00;;;2.40;;
20888;SDS011;10604;51.976;7.594;2023-05-28T22:15:57;3.92;;;2.90;;
20888;SDS011;10604;51.976;7.594;2023-05-28T22:18:22;4.77;;;2.70;;
20888;SDS011;10604;51.976;7.594;2023-05-28T22:20:48;4.97;;;2.97;;
20888;SDS011;10604;51.976;7.594;2023-05-28T22:23:14;4.80;;;2.80;;
20888;SDS011;10604;51.976;7.594;2023-05-28T22:25:40;4.00;;;2.65;;
20888;SDS011;10604;51.976;7.594;2023-05-28T22:28:06;4.13;;;2.63;;
20888;SDS011;10604;51.976;7.594;2023-05-28T22:30:31;3.47;;;2.70;;
20888;SDS011;10604;51.976;7.594;2023-05-28T22:32:57;5.88;;;3.05;;
20888;SDS011;10604;51.976;7.594;2023-05-28T22:35:23;4.50;;;2.67;;
20888;SDS011;10604;51.976;7.594;2023-05-28T22:37:49;5.53;;;2.90;;
20888;SDS011;10604;51.976;7.594;2023-05-28T22:40:15;6.70;;;3.40;;
20888;SDS011;10604;51.976;7.594;2023-05-28T22:42:41;6.13;;;3.10;;
20888;SDS011;10604;51.976;7.594;2023-05-28T22:45:08;9.53;;;3.00;;
20888;SDS011;10604;51.976;7.594;2023-05-28T22:47:36;4.93;;;2.95;;
20888;SDS011;10604;51.976;7.594;2023-05-28T22:50:02;5.15;;;2.90;;
20888;SDS011;10604;51.976;7.594;2023-05-28T22:52:28;3.90;;;2.67;;
20888;SDS011;10604;51.976;7.594;2023-05-28T22:54:55;6.38;;;2.80;;
20888;SDS011;10604;51.976;7.594;2023-05-28T22:57:21;6.30;;;3.10;;
20888;SDS011;10604;51.976;7.594;2023-05-28T22:59:46;7.33;;;3.20;;
20888;SDS011;10604;51.976;7.594;2023-05-28T23:02:11;5.82;;;3.13;;
20888;SDS011;10604;51.976;7.594;2023-05-28T23:04:37;6.30;;;3.10;;
20888;SDS011;10604;51.976;7.594;2023-05-28T23:07:03;5.07;;;2.78;;
20888;SDS011;10604;51.976;7.594;2023-05-28T23:09:28;6.77;;;2.90;;
20888;SDS011;10604;51.976;7.594;2023-05-28T23:11:53;5.50;;;2.90;;
20888;SDS011;10604;51.976;7.594;2023-05-28T23:14:19;6.53;;;2.92;;
20888;SDS011;10604;51.976;7.594;2023-05-28T23:16:45;10.00;;;3.03;;
20888;SDS011;10604;51.976;7.594;2023-05-28T23:19:10;6.63;;;3.00;;
20888;SDS011;10604;51.976;7.594;2023-05-28T23:21:36;8.17;;;3.50;;
20888;SDS011;10604;51.976;7.594;2023-05-28T23:24:03;7.18;;;3.10;;
20888;SDS011;10604;51.976;7.594;2023-05-28T23:26:30;9.82;;;3.13;;
20888;SDS011;10604;51.976;7.594;2023-05-28T23:28:56;8.73;;;3.15;;
20888;SDS011;10604;51.976;7.594;2023-05-28T23:31:21;7.17;;;2.87;;
20888;SDS011;10604;51.976;7.594;2023-05-28T23:33:47;7.45;;;3.38;;
20888;SDS011;10604;51.976;7.594;2023-05-28T23:36:13;8.63;;;3.03;;
20888;SDS011;10604;51.976;7.594;2023-05-28T23:38:38;8.23;;;3.15;;
20888;SDS011;10604;51.976;7.594;2023-05-28T23:41:05;8.75;;;3.28;;
20888;SDS011;10604;51.976;7.594;2023-05-28T23:43:30;8.27;;;3.00;;
20888;SDS011;10604;51.976;7.594;2023-05-28T23:45:55;9.60;;;3.37;;
20888;SDS011;10604;51.976;7.594;2023-05-28T23:48:21;8.20;;;2.97;;
20888;SDS011;10604;51.976;7.594;2023-05-28T23:50:46;10.23;;;3.10;;
20888;SDS011;10604;51.976;7.594;2023-05-28T23:53:12;10.80;;;3.43;;
20888;SDS011;10604;51.976;7.594;2023-05-28T23:55:37;8.75;;;3.30;;
20888;SDS011;10604;51.976;7.594;2023-05-28T23:58:03;9.88;;;3.40;;
